createdAt,value
2022-12-18T00:00:15.561Z,7.82
2022-12-18T00:02:46.006Z,7.80
2022-12-18T00:05:15.219Z,7.80
2022-12-18T00:07:44.049Z,7.63
2022-12-18T00:10:15.186Z,7.90
2022-12-18T00:12:47.332Z,7.80
2022-12-18T00:15:16.331Z,8.33
2022-12-18T00:17:45.329Z,7.97
2022-12-18T00:20:14.948Z,8.30
2022-12-18T00:22:43.762Z,8.32
2022-12-18T00:25:12.796Z,8.63
2022-12-18T00:27:41.840Z,9.00
2022-12-18T00:31:06.446Z,8.80
2022-12-18T00:33:37.440Z,9.30
2022-12-18T00:36:13.011Z,8.27
2022-12-18T00:38:43.088Z,9.00
2022-12-18T00:41:13.785Z,8.77
2022-12-18T00:43:42.959Z,8.93
2022-12-18T00:46:11.869Z,9.32
2022-12-18T00:48:40.973Z,8.70
2022-12-18T00:51:10.773Z,7.75
2022-12-18T00:53:39.945Z,8.40
2022-12-18T00:56:08.999Z,9.27
2022-12-18T00:58:37.973Z,8.85
2022-12-18T01:01:08.123Z,8.45
2022-12-18T01:03:37.284Z,8.43
2022-12-18T01:06:11.091Z,8.38
2022-12-18T01:08:40.853Z,8.38
2022-12-18T01:11:14.604Z,8.80
2022-12-18T01:13:44.740Z,7.97
2022-12-18T01:16:18.228Z,8.73
2022-12-18T01:18:47.595Z,9.50
2022-12-18T01:21:18.322Z,8.90
2022-12-18T01:23:47.692Z,8.90
2022-12-18T01:26:17.919Z,9.13
2022-12-18T01:28:47.187Z,8.90
2022-12-18T01:31:22.581Z,8.38
2022-12-18T01:33:53.483Z,8.30
2022-12-18T01:36:28.328Z,8.68
2022-12-18T01:38:58.730Z,8.60
2022-12-18T01:41:54.384Z,8.48
2022-12-18T01:44:57.527Z,7.57
2022-12-18T01:47:45.395Z,8.15
2022-12-18T01:50:20.099Z,8.10
2022-12-18T01:53:16.778Z,7.65
2022-12-18T01:55:54.819Z,7.65
2022-12-18T01:58:31.397Z,8.18
2022-12-18T02:01:01.067Z,7.65
2022-12-18T02:03:29.830Z,7.80
2022-12-18T02:06:14.086Z,8.15
2022-12-18T02:08:46.220Z,7.78
2022-12-18T02:11:15.049Z,7.70
2022-12-18T02:13:48.804Z,7.43
2022-12-18T02:16:36.404Z,8.53
2022-12-18T02:19:31.207Z,8.53
2022-12-18T02:22:29.118Z,9.00
2022-12-18T02:25:23.163Z,8.55
2022-12-18T02:27:54.923Z,8.00
2022-12-18T02:30:24.817Z,8.23
2022-12-18T02:32:56.584Z,7.80
2022-12-18T02:35:30.959Z,8.73
2022-12-18T02:38:02.604Z,7.97
2022-12-18T02:40:35.211Z,8.07
2022-12-18T02:43:15.845Z,8.90
2022-12-18T02:45:56.226Z,8.65
2022-12-18T02:48:33.692Z,8.73
2022-12-18T02:51:17.058Z,9.13
2022-12-18T02:54:14.861Z,8.73
2022-12-18T02:56:56.210Z,7.45
2022-12-18T02:59:40.098Z,7.32
2022-12-18T03:02:36.012Z,8.05
2022-12-18T03:05:13.205Z,7.68
2022-12-18T03:08:06.438Z,7.95
2022-12-18T03:10:44.996Z,7.57
2022-12-18T03:13:33.742Z,8.07
2022-12-18T03:16:07.957Z,7.32
2022-12-18T03:18:50.629Z,8.45
2022-12-18T03:21:25.406Z,8.40
2022-12-18T03:23:56.683Z,8.15
2022-12-18T03:26:30.231Z,9.10
2022-12-18T03:29:08.552Z,9.00
2022-12-18T03:31:42.640Z,8.37
2022-12-18T03:34:18.439Z,8.87
2022-12-18T03:36:49.123Z,8.90
2022-12-18T03:39:18.623Z,8.60
2022-12-18T03:42:09.871Z,8.63
2022-12-18T03:44:46.616Z,8.45
2022-12-18T03:47:17.884Z,8.40
2022-12-18T03:50:21.346Z,8.97
2022-12-18T03:53:02.278Z,8.18
2022-12-18T03:55:35.699Z,8.90
2022-12-18T03:58:09.675Z,9.15
2022-12-18T04:00:52.535Z,8.90
2022-12-18T04:03:26.470Z,9.88
2022-12-18T04:05:57.842Z,8.77
2022-12-18T04:08:28.007Z,9.40
2022-12-18T04:11:04.591Z,9.40
2022-12-18T04:13:38.757Z,9.57
2022-12-18T04:16:12.653Z,9.25
2022-12-18T04:18:44.794Z,9.98
2022-12-18T04:21:15.834Z,10.40
2022-12-18T04:23:45.237Z,10.07
2022-12-18T04:26:14.558Z,9.85
2022-12-18T04:29:03.653Z,9.10
2022-12-18T04:31:32.924Z,9.38
2022-12-18T04:34:01.787Z,8.90
2022-12-18T04:36:31.300Z,9.50
2022-12-18T04:39:00.441Z,8.32
2022-12-18T04:41:30.157Z,9.20
2022-12-18T04:43:59.805Z,7.38
2022-12-18T04:46:29.064Z,8.70
2022-12-18T04:48:57.858Z,8.10
2022-12-18T04:51:27.131Z,8.80
2022-12-18T04:53:55.932Z,8.05
2022-12-18T04:56:25.405Z,7.63
2022-12-18T04:58:54.204Z,7.07
2022-12-18T05:01:23.178Z,7.22
2022-12-18T05:03:53.665Z,7.18
2022-12-18T05:06:22.765Z,7.05
2022-12-18T05:08:51.586Z,6.90
2022-12-18T05:11:20.487Z,7.50
2022-12-18T05:13:49.268Z,7.00
2022-12-18T05:16:18.098Z,7.72
2022-12-18T05:18:46.918Z,7.00
2022-12-18T05:21:15.932Z,7.70
2022-12-18T05:23:44.738Z,7.10
2022-12-18T05:26:20.057Z,7.03
2022-12-18T05:28:49.099Z,7.07
2022-12-18T05:31:17.742Z,7.15
2022-12-18T05:33:46.901Z,6.60
2022-12-18T05:36:15.749Z,7.13
2022-12-18T05:38:45.030Z,7.93
2022-12-18T05:41:14.268Z,7.27
2022-12-18T05:43:44.235Z,7.28
2022-12-18T05:46:17.011Z,7.25
2022-12-18T05:48:47.177Z,6.97
2022-12-18T05:51:18.512Z,7.65
2022-12-18T05:53:48.023Z,7.60
2022-12-18T05:56:23.003Z,7.17
2022-12-18T05:58:56.436Z,7.47
2022-12-18T06:01:45.434Z,8.57
2022-12-18T06:04:15.335Z,8.23
2022-12-18T06:06:44.254Z,8.57
2022-12-18T06:09:13.847Z,8.23
2022-12-18T06:11:42.839Z,8.63
2022-12-18T06:14:12.337Z,8.90
2022-12-18T06:16:41.032Z,8.85
2022-12-18T06:19:10.199Z,8.85
2022-12-18T06:21:39.137Z,8.70
2022-12-18T06:24:08.459Z,9.15
2022-12-18T06:26:40.585Z,10.20
2022-12-18T06:29:09.827Z,9.48
2022-12-18T06:31:39.847Z,10.25
2022-12-18T06:34:08.822Z,9.98
2022-12-18T06:36:37.671Z,13.25
2022-12-18T06:39:07.628Z,13.48
2022-12-18T06:41:36.977Z,13.65
2022-12-18T06:44:07.938Z,14.13
2022-12-18T06:46:37.115Z,13.50
2022-12-18T06:49:06.274Z,11.93
2022-12-18T06:51:35.202Z,14.23
2022-12-18T06:54:04.353Z,13.93
2022-12-18T06:56:33.662Z,13.83
2022-12-18T06:59:02.744Z,14.93
2022-12-18T07:01:32.119Z,14.00
2022-12-18T07:04:01.183Z,14.73
2022-12-18T07:06:30.221Z,13.95
2022-12-18T07:08:59.396Z,15.00
2022-12-18T07:11:28.634Z,15.30
2022-12-18T07:13:57.463Z,14.48
2022-12-18T07:16:26.828Z,13.95
2022-12-18T07:18:58.074Z,15.10
2022-12-18T07:21:27.513Z,13.88
2022-12-18T07:23:56.398Z,13.25
2022-12-18T07:26:25.824Z,13.65
2022-12-18T07:28:59.393Z,13.47
2022-12-18T07:31:28.934Z,13.60
2022-12-18T07:33:58.316Z,13.20
2022-12-18T07:36:27.519Z,13.48
2022-12-18T07:38:56.433Z,13.40
2022-12-18T07:41:25.268Z,13.52
2022-12-18T07:43:54.663Z,13.20
2022-12-18T07:46:23.781Z,13.50
2022-12-18T07:48:52.805Z,13.43
2022-12-18T07:51:21.821Z,13.10
2022-12-18T07:53:52.226Z,13.32
2022-12-18T07:56:28.143Z,14.25
2022-12-18T07:58:59.497Z,13.87
2022-12-18T08:01:28.801Z,14.48
2022-12-18T08:04:00.379Z,13.37
2022-12-18T08:06:29.464Z,12.77
2022-12-18T08:08:58.649Z,15.52
2022-12-18T08:11:29.742Z,14.05
2022-12-18T08:13:59.769Z,14.80
2022-12-18T08:16:28.838Z,14.73
2022-12-18T08:18:58.346Z,14.50
2022-12-18T08:21:30.318Z,14.63
2022-12-18T08:24:01.656Z,13.85
2022-12-18T08:26:32.840Z,13.85
2022-12-18T08:29:03.706Z,13.98
2022-12-18T08:31:33.197Z,13.90
2022-12-18T08:34:02.510Z,14.88
2022-12-18T08:36:31.576Z,14.15
2022-12-18T08:39:00.531Z,14.40
2022-12-18T08:41:29.430Z,14.70
2022-12-18T08:44:17.577Z,15.17
2022-12-18T08:46:46.704Z,15.25
2022-12-18T08:49:15.737Z,14.43
2022-12-18T08:51:44.856Z,16.08
2022-12-18T08:54:15.695Z,15.35
2022-12-18T08:56:44.875Z,15.77
2022-12-18T08:59:19.343Z,19.88
2022-12-18T09:01:50.326Z,16.50
2022-12-18T09:04:20.108Z,15.93
2022-12-18T09:06:48.811Z,16.05
2022-12-18T09:09:17.968Z,15.30
2022-12-18T09:11:47.032Z,15.75
2022-12-18T09:14:16.582Z,14.97
2022-12-18T09:16:45.869Z,16.00
2022-12-18T09:19:15.440Z,14.50
2022-12-18T09:21:47.975Z,13.80
2022-12-18T09:24:18.994Z,15.13
2022-12-18T09:26:58.099Z,14.88
2022-12-18T09:29:27.338Z,14.65
2022-12-18T09:31:56.107Z,13.82
2022-12-18T09:34:27.394Z,13.15
2022-12-18T09:36:57.284Z,13.45
2022-12-18T09:39:26.197Z,13.52
2022-12-18T09:41:59.719Z,13.25
2022-12-18T09:44:33.625Z,13.48
2022-12-18T09:47:36.032Z,13.07
2022-12-18T09:50:19.180Z,13.10
2022-12-18T09:52:54.382Z,14.07
2022-12-18T09:55:37.624Z,13.18
2022-12-18T09:58:19.625Z,14.05
2022-12-18T10:00:48.591Z,13.85
2022-12-18T10:03:18.248Z,13.18
2022-12-18T10:06:24.482Z,12.90
2022-12-18T10:09:11.994Z,12.60
2022-12-18T10:11:51.179Z,12.48
2022-12-18T10:14:32.446Z,12.98
2022-12-18T10:17:26.119Z,13.05
2022-12-18T10:20:07.295Z,12.15
2022-12-18T10:23:12.349Z,11.70
2022-12-18T10:25:44.535Z,12.55
2022-12-18T10:28:16.840Z,12.88
2022-12-18T10:30:46.568Z,13.23
2022-12-18T10:33:30.482Z,13.27
2022-12-18T10:35:59.853Z,13.55
2022-12-18T10:38:30.676Z,14.20
2022-12-18T10:41:07.411Z,13.60
2022-12-18T10:43:42.815Z,15.00
2022-12-18T10:46:11.877Z,15.07
2022-12-18T10:48:51.622Z,16.35
2022-12-18T10:51:30.624Z,16.30
2022-12-18T10:54:23.706Z,16.02
2022-12-18T10:56:52.931Z,16.25
2022-12-18T10:59:22.025Z,17.77
2022-12-18T11:01:58.275Z,16.42
2022-12-18T11:04:37.093Z,16.40
2022-12-18T11:07:12.657Z,17.20
2022-12-18T11:09:42.684Z,17.65
2022-12-18T11:12:19.635Z,16.85
2022-12-18T11:14:57.883Z,16.77
2022-12-18T11:17:34.846Z,17.00
2022-12-18T11:20:21.530Z,17.17
2022-12-18T11:23:06.634Z,17.17
2022-12-18T11:25:36.435Z,17.05
2022-12-18T11:28:31.171Z,16.70
2022-12-18T11:31:26.427Z,16.88
2022-12-18T11:34:32.727Z,16.33
2022-12-18T11:37:05.219Z,16.90
2022-12-18T11:39:52.216Z,19.58
2022-12-18T11:42:35.043Z,17.35
2022-12-18T11:45:16.405Z,16.23
2022-12-18T11:48:05.323Z,16.33
2022-12-18T11:51:00.823Z,16.25
2022-12-18T11:53:32.861Z,15.80
2022-12-18T11:56:28.634Z,14.95
2022-12-18T11:58:58.655Z,15.25
2022-12-18T12:01:48.196Z,14.80
2022-12-18T12:05:26.661Z,15.38
2022-12-18T12:08:29.674Z,16.38
2022-12-18T12:11:44.367Z,14.95
2022-12-18T12:14:28.360Z,16.38
2022-12-18T12:17:32.000Z,16.10
2022-12-18T12:20:21.077Z,16.58
2022-12-18T12:23:02.414Z,18.23
2022-12-18T12:25:43.314Z,18.13
2022-12-18T12:28:35.851Z,18.23
2022-12-18T12:31:46.950Z,22.60
2022-12-18T12:34:33.714Z,17.60
2022-12-18T12:37:25.872Z,16.57
2022-12-18T12:39:56.984Z,25.38
2022-12-18T12:43:05.114Z,30.20
2022-12-18T12:45:56.587Z,36.70
2022-12-18T12:48:25.558Z,30.90
2022-12-18T12:50:57.164Z,28.05
2022-12-18T12:53:32.785Z,28.23
2022-12-18T12:56:01.990Z,22.65
2022-12-18T12:59:13.100Z,28.83
2022-12-18T13:02:23.881Z,33.67
2022-12-18T13:05:06.153Z,27.67
2022-12-18T13:07:48.201Z,22.90
2022-12-18T13:10:25.639Z,20.67
2022-12-18T13:13:03.455Z,18.73
2022-12-18T13:15:46.813Z,18.20
2022-12-18T13:18:24.635Z,18.90
2022-12-18T13:21:21.113Z,26.90
2022-12-18T13:23:51.274Z,22.85
2022-12-18T13:26:24.738Z,18.33
2022-12-18T13:28:59.959Z,17.63
2022-12-18T13:31:41.194Z,17.02
2022-12-18T13:34:32.687Z,16.58
2022-12-18T13:37:39.134Z,15.95
2022-12-18T13:40:46.510Z,17.70
2022-12-18T13:44:16.735Z,17.25
2022-12-18T13:46:51.805Z,18.58
2022-12-18T13:49:26.773Z,20.38
2022-12-18T13:51:58.385Z,22.55
2022-12-18T13:54:32.755Z,23.13
2022-12-18T13:57:02.050Z,22.80
2022-12-18T13:59:39.268Z,24.23
2022-12-18T14:02:17.054Z,22.67
2022-12-18T14:04:50.742Z,23.42
2022-12-18T14:07:33.046Z,22.42
2022-12-18T14:13:13.491Z,21.20
2022-12-18T14:15:46.231Z,21.98
2022-12-18T14:18:30.694Z,20.92
2022-12-18T14:21:02.063Z,21.35
2022-12-18T14:23:41.528Z,21.13
2022-12-18T14:26:30.980Z,20.02
2022-12-18T14:29:06.299Z,21.42
2022-12-18T14:31:35.649Z,20.05
2022-12-18T14:34:04.646Z,19.92
2022-12-18T14:36:33.530Z,17.98
2022-12-18T14:39:02.321Z,16.73
2022-12-18T14:41:31.468Z,15.73
2022-12-18T14:44:08.990Z,15.65
2022-12-18T14:46:40.725Z,15.25
2022-12-18T14:49:31.407Z,15.63
2022-12-18T14:52:16.816Z,36.45
2022-12-18T14:54:50.101Z,40.67
2022-12-18T14:57:32.735Z,35.42
2022-12-18T15:00:14.524Z,21.38
2022-12-18T15:02:46.674Z,17.15
2022-12-18T15:05:21.889Z,13.38
2022-12-18T15:07:54.351Z,11.90
2022-12-18T15:10:26.176Z,10.68
2022-12-18T15:12:58.009Z,10.98
2022-12-18T15:15:39.201Z,10.68
2022-12-18T15:18:13.734Z,11.85
2022-12-18T15:20:51.312Z,12.55
2022-12-18T15:23:30.230Z,11.93
2022-12-18T15:26:09.580Z,11.55
2022-12-18T15:28:57.213Z,12.93
2022-12-18T15:31:37.285Z,12.30
2022-12-18T15:34:22.510Z,13.88
2022-12-18T15:36:53.427Z,16.02
2022-12-18T15:39:22.734Z,17.02
2022-12-18T15:42:10.694Z,18.98
2022-12-18T15:44:40.543Z,19.30
2022-12-18T15:47:15.291Z,20.63
2022-12-18T15:49:45.034Z,20.13
2022-12-18T15:52:16.015Z,20.55
2022-12-18T15:55:03.271Z,20.35
2022-12-18T15:57:32.655Z,20.42
2022-12-18T16:00:01.603Z,19.13
2022-12-18T16:02:33.293Z,19.95
2022-12-18T16:05:02.348Z,17.67
2022-12-18T16:07:31.139Z,18.27
2022-12-18T16:10:02.596Z,18.50
2022-12-18T16:12:32.790Z,20.15
2022-12-18T16:15:02.965Z,19.33
2022-12-18T16:17:31.714Z,20.17
2022-12-18T16:20:01.376Z,19.77
2022-12-18T16:22:31.616Z,19.33
2022-12-18T16:25:00.942Z,17.33
2022-12-18T16:27:29.669Z,19.80
2022-12-18T16:29:58.610Z,18.85
2022-12-18T16:32:27.782Z,17.83
2022-12-18T16:35:03.066Z,17.67
2022-12-18T16:37:32.138Z,18.25
2022-12-18T16:40:00.926Z,19.37
2022-12-18T16:42:30.059Z,21.02
2022-12-18T16:44:58.747Z,21.25
2022-12-18T16:47:27.983Z,21.25
2022-12-18T16:49:57.132Z,21.38
2022-12-18T16:52:28.907Z,20.92
2022-12-18T16:54:58.771Z,20.77
2022-12-18T16:57:27.653Z,20.70
2022-12-18T17:00:01.315Z,21.27
2022-12-18T17:02:34.554Z,20.53
2022-12-18T17:05:03.426Z,20.58
2022-12-18T17:07:33.594Z,18.85
2022-12-18T17:10:03.543Z,18.73
2022-12-18T17:12:33.100Z,17.67
2022-12-18T17:15:01.826Z,18.48
2022-12-18T17:17:31.215Z,17.35
2022-12-18T17:20:00.215Z,15.93
2022-12-18T17:22:30.395Z,13.77
2022-12-18T17:25:00.134Z,12.35
2022-12-18T17:27:29.211Z,10.65
2022-12-18T17:29:58.495Z,9.75
2022-12-18T17:32:27.248Z,10.00
2022-12-18T17:34:56.190Z,10.23
2022-12-18T17:37:26.668Z,9.47
2022-12-18T17:39:55.950Z,10.32
2022-12-18T17:42:24.872Z,9.38
2022-12-18T17:44:54.175Z,9.88
2022-12-18T17:47:23.158Z,10.23
2022-12-18T17:49:52.797Z,10.48
2022-12-18T17:52:22.342Z,10.43
2022-12-18T17:54:51.034Z,9.80
2022-12-18T17:57:19.862Z,10.30
2022-12-18T17:59:56.173Z,10.70
2022-12-18T18:02:25.720Z,10.63
2022-12-18T18:04:55.548Z,11.15
2022-12-18T18:07:24.696Z,11.20
2022-12-18T18:09:53.421Z,11.63
2022-12-18T18:12:40.775Z,11.55
2022-12-18T18:15:10.495Z,11.90
2022-12-18T18:17:40.039Z,12.50
2022-12-18T18:20:09.604Z,11.38
2022-12-18T18:22:38.317Z,11.80
2022-12-18T18:25:07.575Z,12.25
2022-12-18T18:27:39.340Z,13.50
2022-12-18T18:30:08.640Z,12.82
2022-12-18T18:32:40.843Z,13.38
2022-12-18T18:35:24.547Z,56.63
2022-12-18T18:37:59.254Z,16.70
2022-12-18T18:40:28.078Z,12.97
2022-12-18T18:43:00.352Z,10.90
2022-12-18T18:45:36.650Z,10.27
2022-12-18T18:48:08.451Z,9.88
2022-12-18T18:50:37.446Z,9.57
2022-12-18T18:53:06.133Z,8.77
2022-12-18T18:55:35.328Z,8.52
2022-12-18T18:58:04.058Z,9.60
2022-12-18T19:00:37.717Z,7.95
2022-12-18T19:03:07.600Z,9.02
2022-12-18T19:05:36.655Z,9.23
2022-12-18T19:08:05.956Z,9.95
2022-12-18T19:10:34.990Z,10.00
2022-12-18T19:13:23.968Z,11.65
2022-12-18T19:15:56.679Z,13.25
2022-12-18T19:18:25.872Z,14.15
2022-12-18T19:21:03.173Z,14.77
2022-12-18T19:23:35.063Z,15.23
2022-12-18T19:26:26.960Z,14.77
2022-12-18T19:28:54.991Z,15.88
2022-12-18T19:31:29.223Z,16.27
2022-12-18T19:34:01.896Z,16.33
2022-12-18T19:36:32.091Z,15.82
2022-12-18T19:39:09.301Z,16.23
2022-12-18T19:41:38.246Z,15.97
2022-12-18T19:44:08.712Z,14.82
2022-12-18T19:46:40.985Z,16.10
2022-12-18T19:49:13.649Z,15.43
2022-12-18T19:51:50.438Z,15.70
2022-12-18T19:54:19.768Z,16.10
2022-12-18T19:56:48.452Z,16.10
2022-12-18T19:59:17.504Z,14.93
2022-12-18T20:01:46.454Z,16.50
2022-12-18T20:04:15.416Z,15.95
2022-12-18T20:06:50.483Z,15.40
2022-12-18T20:09:20.498Z,14.95
2022-12-18T20:11:50.915Z,13.70
2022-12-18T20:14:23.495Z,12.53
2022-12-18T20:16:53.725Z,12.05
2022-12-18T20:19:24.047Z,13.43
2022-12-18T20:21:52.934Z,12.52
2022-12-18T20:24:21.697Z,11.80
2022-12-18T20:26:50.324Z,11.65
2022-12-18T20:29:19.113Z,12.20
2022-12-18T20:31:48.306Z,12.10
2022-12-18T20:34:16.966Z,12.52
2022-12-18T20:36:46.028Z,12.30
2022-12-18T20:39:15.632Z,12.77
2022-12-18T20:41:45.033Z,12.55
2022-12-18T20:44:22.413Z,12.63
2022-12-18T20:46:54.369Z,13.02
2022-12-18T20:49:24.631Z,12.75
2022-12-18T20:51:57.052Z,13.27
2022-12-18T20:54:28.169Z,13.88
2022-12-18T20:56:57.869Z,13.10
2022-12-18T20:59:26.876Z,13.82
2022-12-18T21:01:55.782Z,14.17
2022-12-18T21:04:25.696Z,13.82
2022-12-18T21:07:00.577Z,14.75
2022-12-18T21:09:37.173Z,14.73
2022-12-18T21:12:37.465Z,15.18
2022-12-18T21:15:12.117Z,14.90
2022-12-18T21:17:45.075Z,14.48
2022-12-18T21:20:17.969Z,14.43
2022-12-18T21:22:50.088Z,14.40
2022-12-18T21:25:19.325Z,16.15
2022-12-18T21:27:48.037Z,17.20
2022-12-18T21:30:17.531Z,16.08
2022-12-18T21:32:46.512Z,16.27
2022-12-18T21:35:15.450Z,17.33
2022-12-18T21:37:46.481Z,17.08
2022-12-18T21:40:15.458Z,16.63
2022-12-18T21:43:02.759Z,15.43
2022-12-18T21:45:31.636Z,14.50
2022-12-18T21:48:00.286Z,14.83
2022-12-18T21:50:29.299Z,14.70
2022-12-18T21:53:00.464Z,14.00
2022-12-18T21:55:29.317Z,13.95
2022-12-18T21:57:58.315Z,14.60
2022-12-18T22:00:27.168Z,13.70
2022-12-18T22:03:17.896Z,13.70
2022-12-18T22:05:45.377Z,13.50
2022-12-18T22:08:16.206Z,12.35
2022-12-18T22:10:44.817Z,13.30
2022-12-18T22:13:14.043Z,13.02
2022-12-18T22:15:42.869Z,12.70
2022-12-18T22:18:15.197Z,12.90
2022-12-18T22:20:44.666Z,12.93
2022-12-18T22:23:13.877Z,11.55
2022-12-18T22:25:42.887Z,10.38
2022-12-18T22:28:29.843Z,11.50
2022-12-18T22:30:59.699Z,11.03
2022-12-18T22:33:29.235Z,10.65
2022-12-18T22:35:57.951Z,10.85
2022-12-18T22:38:26.745Z,10.98
2022-12-18T22:40:56.143Z,10.27
2022-12-18T22:43:25.098Z,10.85
2022-12-18T22:45:54.136Z,10.20
2022-12-18T22:48:23.164Z,9.77
2022-12-18T22:50:53.862Z,9.95
2022-12-18T22:53:28.796Z,9.90
2022-12-18T22:56:03.803Z,7.75
2022-12-18T22:58:32.782Z,8.25
2022-12-18T23:01:01.589Z,7.82
2022-12-18T23:03:30.654Z,5.20
2022-12-18T23:06:07.874Z,5.00
2022-12-18T23:08:37.410Z,3.90
2022-12-18T23:11:06.678Z,3.30
2022-12-18T23:13:36.419Z,5.55
2022-12-18T23:16:11.186Z,6.25
2022-12-18T23:18:40.415Z,5.18
2022-12-18T23:21:12.176Z,5.20
2022-12-18T23:23:42.347Z,4.82
2022-12-18T23:26:13.865Z,4.50
2022-12-18T23:28:43.631Z,4.60
2022-12-18T23:31:16.069Z,5.25
2022-12-18T23:33:48.646Z,5.03
2022-12-18T23:36:20.039Z,5.40
2022-12-18T23:38:52.581Z,5.70
2022-12-18T23:41:23.610Z,6.88
2022-12-18T23:43:53.024Z,9.53
2022-12-18T23:46:29.936Z,10.73
2022-12-18T23:49:05.853Z,11.33
2022-12-18T23:51:35.949Z,11.23
2022-12-18T23:54:05.300Z,11.43
2022-12-18T23:56:36.533Z,11.25
2022-12-18T23:59:06.132Z,11.13
